»·PEaware :: N1940F KBIL-KBZN

N1940F :: KBIL-KBZN

FLIGHT INFORMATION

Flight Status: Arrived
Operator: Privately registered:
United States
More flights under this callsign
Pilot: Pratham R. (19019)
Aircraft: SOCATA TBM-900
(TBM9)
More flights by this aircraft type
Origin: KBIL Billings Logan Intl
United States
Destination: KBZN Gallatin
United States
More flights between these airports :: More routes between these airports
Route: +BIL5 BZN
File this flight plan on PilotEdge
Remarks:
Altitude:
(Current/Filed)
7,000ft
Speed:
(Current/Filed)
210kts
Departed: 02-Feb-20 10:30 PM
Arrived: 02-Feb-20 11:10 PM
Distance/Time
Traveled:
109nm/0:40
Distance/Time
To Go:
Arrived

Flight Plot

Page will automatically refresh every two minutes.

Flight plan parsing failed; only flown route is shown


Map Options




Map Legend


Flown Route
Filed Route
Departure Airport
Arrival Airport
Navaid (VOR, NDB)
Fix

Horizontal Profiles

Position Reports

Time Latitude Longitude Heading Altitude Ground
Speed
02-Feb-20 22:17 45.803486 -108.547089 270 3654ft 0kts
02-Feb-20 22:19 45.803486 -108.547089 270 3654ft 0kts
02-Feb-20 22:19 45.803486 -108.547089 270 3654ft 0kts
02-Feb-20 22:20 45.803614 -108.547537 30 3654ft 7kts
02-Feb-20 22:21 45.805854 -108.546842 73 3654ft 14kts
02-Feb-20 22:22 45.805718 -108.540992 124 3654ft 6kts
02-Feb-20 22:23 45.805816 -108.536906 109 3654ft 15kts
02-Feb-20 22:24 45.804725 -108.530381 101 3654ft 16kts
02-Feb-20 22:25 45.803364 -108.525486 113 3654ft 13kts
02-Feb-20 22:26 45.801368 -108.518658 111 3654ft 13kts
02-Feb-20 22:27 45.801236 -108.517345 56 3654ft 0kts
02-Feb-20 22:28 45.801944 -108.516820 359 3654ft 6kts
02-Feb-20 22:29 45.803838 -108.522939 291 3654ft 97kts
02-Feb-20 22:30 45.817520 -108.568399 294 5453ft 131kts
02-Feb-20 22:31 45.830243 -108.621402 292 7388ft 146kts
02-Feb-20 22:32 45.842281 -108.679201 292 9178ft 155kts
02-Feb-20 22:33 45.845636 -108.746054 274 10925ft 186kts
02-Feb-20 22:34 45.844448 -108.829674 273 12004ft 220kts
02-Feb-20 22:35 45.842889 -108.925213 273 12005ft 246kts
02-Feb-20 22:36 45.841192 -109.024714 272 12000ft 253kts
02-Feb-20 22:37 45.839338 -109.127501 271 12000ft 253kts
02-Feb-20 22:38 45.837386 -109.229829 270 11999ft 252kts
02-Feb-20 22:39 45.835347 -109.332021 270 11999ft 252kts
02-Feb-20 22:40 45.833289 -109.431538 270 12000ft 252kts
02-Feb-20 22:41 45.831084 -109.533848 270 11974ft 255kts
02-Feb-20 22:42 45.828766 -109.637049 270 11938ft 256kts
02-Feb-20 22:43 45.826356 -109.740261 269 11916ft 256kts
02-Feb-20 22:44 45.823868 -109.842875 269 11916ft 256kts
02-Feb-20 22:45 45.821271 -109.946061 269 11916ft 256kts
02-Feb-20 22:46 45.818598 -110.048657 269 11917ft 256kts
02-Feb-20 22:47 45.815811 -110.152028 269 11917ft 256kts
02-Feb-20 22:48 45.812942 -110.254996 269 11917ft 256kts
02-Feb-20 22:49 45.810027 -110.356363 269 11917ft 256kts
02-Feb-20 22:50 45.827047 -110.455250 291 11918ft 252kts
02-Feb-20 22:51 45.849808 -110.552077 291 11918ft 252kts
02-Feb-20 22:52 45.872603 -110.648847 291 11919ft 255kts
02-Feb-20 22:53 45.896452 -110.749006 291 11922ft 266kts
02-Feb-20 22:54 45.920996 -110.851392 291 11924ft 268kts
02-Feb-20 22:55 45.945499 -110.954077 291 11925ft 270kts
02-Feb-20 22:56 45.969577 -111.057844 291 11925ft 273kts
02-Feb-20 22:57 45.993497 -111.163411 291 11920ft 270kts
02-Feb-20 22:58 46.016332 -111.265353 291 11925ft 263kts
02-Feb-20 22:59 46.040008 -111.365935 291 10827ft 263kts
02-Feb-20 23:00 46.060672 -111.464799 253 9610ft 259kts
02-Feb-20 23:01 46.004185 -111.477896 168 8385ft 227kts
02-Feb-20 23:02 45.949979 -111.471396 143 7911ft 175kts
02-Feb-20 23:03 45.934320 -111.410410 106 7922ft 156kts
02-Feb-20 23:04 45.920698 -111.352202 126 7924ft 144kts
02-Feb-20 23:05 45.889625 -111.307542 138 7203ft 168kts
02-Feb-20 23:06 45.854221 -111.258419 139 6246ft 174kts
02-Feb-20 23:07 45.820840 -111.212048 139 5344ft 134kts
02-Feb-20 23:08 45.798189 -111.180449 140 4773ft 99kts
02-Feb-20 23:09 45.781209 -111.157007 136 4445ft 34kts
02-Feb-20 23:10 45.778741 -111.156136 225 4451ft 14kts
02-Feb-20 23:11 45.777820 -111.158363 220 4453ft 5kts
02-Feb-20 23:12 45.777328 -111.157954 48 4454ft 0kts
02-Feb-20 23:13 45.777328 -111.157954 48 4454ft 0kts

Navigation Log

Ident Type
Flight plan parsing failed, navigation log unavailable